sensor_id;sensor_type;location;lat;lon;timestamp;P1;durP1;ratioP1;P2;durP2;ratioP2
19776;SDS011;10047;42.490;26.012;2023-02-28T00:01:23;25.10;;;17.40;;
19776;SDS011;10047;42.490;26.012;2023-02-28T00:03:49;26.00;;;18.42;;
19776;SDS011;10047;42.490;26.012;2023-02-28T00:06:14;27.40;;;18.10;;
19776;SDS011;10047;42.490;26.012;2023-02-28T00:08:40;30.77;;;18.20;;
19776;SDS011;10047;42.490;26.012;2023-02-28T00:11:06;30.85;;;18.13;;
19776;SDS011;10047;42.490;26.012;2023-02-28T00:13:41;26.13;;;16.67;;
19776;SDS011;10047;42.490;26.012;2023-02-28T00:16:12;29.02;;;17.75;;
19776;SDS011;10047;42.490;26.012;2023-02-28T00:18:40;27.30;;;17.83;;
19776;SDS011;10047;42.490;26.012;2023-02-28T00:21:06;24.70;;;17.02;;
19776;SDS011;10047;42.490;26.012;2023-02-28T00:23:32;27.90;;;16.90;;
19776;SDS011;10047;42.490;26.012;2023-02-28T00:25:58;25.02;;;16.95;;
19776;SDS011;10047;42.490;26.012;2023-02-28T00:28:24;27.85;;;17.90;;
19776;SDS011;10047;42.490;26.012;2023-02-28T00:30:49;30.90;;;18.30;;
19776;SDS011;10047;42.490;26.012;2023-02-28T00:33:19;26.50;;;17.25;;
19776;SDS011;10047;42.490;26.012;2023-02-28T00:35:44;27.27;;;17.70;;
19776;SDS011;10047;42.490;26.012;2023-02-28T00:38:13;27.38;;;17.73;;
19776;SDS011;10047;42.490;26.012;2023-02-28T00:40:40;27.83;;;17.80;;
19776;SDS011;10047;42.490;26.012;2023-02-28T00:43:05;29.38;;;17.55;;
19776;SDS011;10047;42.490;26.012;2023-02-28T00:45:31;25.27;;;17.45;;
19776;SDS011;10047;42.490;26.012;2023-02-28T00:47:56;25.65;;;16.63;;
19776;SDS011;10047;42.490;26.012;2023-02-28T00:50:21;25.08;;;16.38;;
19776;SDS011;10047;42.490;26.012;2023-02-28T00:52:47;26.23;;;16.13;;
19776;SDS011;10047;42.490;26.012;2023-02-28T00:55:13;25.88;;;15.50;;
19776;SDS011;10047;42.490;26.012;2023-02-28T00:57:38;25.48;;;16.05;;
19776;SDS011;10047;42.490;26.012;2023-02-28T01:00:04;25.55;;;15.95;;
19776;SDS011;10047;42.490;26.012;2023-02-28T01:02:30;24.63;;;16.00;;
19776;SDS011;10047;42.490;26.012;2023-02-28T01:04:55;26.38;;;16.00;;
19776;SDS011;10047;42.490;26.012;2023-02-28T01:07:22;25.15;;;14.98;;
19776;SDS011;10047;42.490;26.012;2023-02-28T01:09:49;27.63;;;15.60;;
19776;SDS011;10047;42.490;26.012;2023-02-28T01:12:14;29.00;;;16.80;;
19776;SDS011;10047;42.490;26.012;2023-02-28T01:14:40;25.10;;;16.35;;
19776;SDS011;10047;42.490;26.012;2023-02-28T01:17:06;25.27;;;15.95;;
19776;SDS011;10047;42.490;26.012;2023-02-28T01:19:31;23.42;;;16.05;;
19776;SDS011;10047;42.490;26.012;2023-02-28T01:22:00;23.83;;;15.73;;
19776;SDS011;10047;42.490;26.012;2023-02-28T01:24:30;23.92;;;14.95;;
19776;SDS011;10047;42.490;26.012;2023-02-28T01:26:55;23.73;;;15.23;;
19776;SDS011;10047;42.490;26.012;2023-02-28T01:29:21;22.38;;;15.18;;
19776;SDS011;10047;42.490;26.012;2023-02-28T01:31:46;20.95;;;14.40;;
19776;SDS011;10047;42.490;26.012;2023-02-28T01:34:11;25.25;;;14.88;;
19776;SDS011;10047;42.490;26.012;2023-02-28T01:36:37;22.17;;;15.02;;
19776;SDS011;10047;42.490;26.012;2023-02-28T01:39:02;26.20;;;14.63;;
19776;SDS011;10047;42.490;26.012;2023-02-28T01:41:30;27.17;;;15.05;;
19776;SDS011;10047;42.490;26.012;2023-02-28T01:43:58;25.88;;;14.63;;
19776;SDS011;10047;42.490;26.012;2023-02-28T01:46:30;22.17;;;14.10;;
19776;SDS011;10047;42.490;26.012;2023-02-28T01:49:01;22.85;;;14.35;;
19776;SDS011;10047;42.490;26.012;2023-02-28T01:51:48;21.92;;;13.82;;
19776;SDS011;10047;42.490;26.012;2023-02-28T01:57:11;18.50;;;12.43;;
19776;SDS011;10047;42.490;26.012;2023-02-28T01:59:45;22.52;;;13.30;;
19776;SDS011;10047;42.490;26.012;2023-02-28T02:02:16;21.70;;;13.15;;
19776;SDS011;10047;42.490;26.012;2023-02-28T02:04:54;21.17;;;12.98;;
19776;SDS011;10047;42.490;26.012;2023-02-28T02:07:23;20.60;;;13.30;;
19776;SDS011;10047;42.490;26.012;2023-02-28T02:09:59;19.90;;;12.48;;
19776;SDS011;10047;42.490;26.012;2023-02-28T02:12:29;20.77;;;12.98;;
19776;SDS011;10047;42.490;26.012;2023-02-28T02:26:43;18.23;;;12.48;;
19776;SDS011;10047;42.490;26.012;2023-02-28T02:32:02;17.85;;;12.50;;
19776;SDS011;10047;42.490;26.012;2023-02-28T02:40:22;22.77;;;13.27;;
19776;SDS011;10047;42.490;26.012;2023-02-28T02:42:55;17.80;;;12.20;;
19776;SDS011;10047;42.490;26.012;2023-02-28T02:48:27;19.52;;;13.07;;
19776;SDS011;10047;42.490;26.012;2023-02-28T02:50:57;24.05;;;13.50;;
19776;SDS011;10047;42.490;26.012;2023-02-28T02:53:30;19.75;;;13.15;;
19776;SDS011;10047;42.490;26.012;2023-02-28T02:56:02;21.23;;;13.52;;
19776;SDS011;10047;42.490;26.012;2023-02-28T02:58:35;24.52;;;14.15;;
19776;SDS011;10047;42.490;26.012;2023-02-28T03:01:07;21.98;;;14.15;;
19776;SDS011;10047;42.490;26.012;2023-02-28T03:03:37;25.85;;;15.05;;
19776;SDS011;10047;42.490;26.012;2023-02-28T03:06:03;22.33;;;14.27;;
19776;SDS011;10047;42.490;26.012;2023-02-28T03:08:33;23.45;;;15.38;;
19776;SDS011;10047;42.490;26.012;2023-02-28T03:11:03;26.88;;;15.93;;
19776;SDS011;10047;42.490;26.012;2023-02-28T03:13:52;24.33;;;15.45;;
19776;SDS011;10047;42.490;26.012;2023-02-28T03:16:32;25.02;;;16.17;;
19776;SDS011;10047;42.490;26.012;2023-02-28T03:30:35;25.83;;;16.70;;
19776;SDS011;10047;42.490;26.012;2023-02-28T03:33:03;27.17;;;17.33;;
19776;SDS011;10047;42.490;26.012;2023-02-28T03:35:39;26.70;;;16.98;;
19776;SDS011;10047;42.490;26.012;2023-02-28T03:38:23;24.42;;;16.90;;
19776;SDS011;10047;42.490;26.012;2023-02-28T03:41:00;25.00;;;16.20;;
19776;SDS011;10047;42.490;26.012;2023-02-28T03:43:32;24.77;;;15.98;;
19776;SDS011;10047;42.490;26.012;2023-02-28T03:46:01;28.02;;;18.23;;
19776;SDS011;10047;42.490;26.012;2023-02-28T03:48:37;28.83;;;19.15;;
19776;SDS011;10047;42.490;26.012;2023-02-28T03:51:08;30.02;;;19.90;;
19776;SDS011;10047;42.490;26.012;2023-02-28T03:53:38;30.95;;;20.25;;
19776;SDS011;10047;42.490;26.012;2023-02-28T03:56:18;31.75;;;20.25;;
19776;SDS011;10047;42.490;26.012;2023-02-28T04:02:03;28.92;;;19.35;;
19776;SDS011;10047;42.490;26.012;2023-02-28T04:04:28;29.50;;;19.98;;
19776;SDS011;10047;42.490;26.012;2023-02-28T04:07:00;32.72;;;19.50;;
19776;SDS011;10047;42.490;26.012;2023-02-28T04:09:28;29.80;;;20.30;;
19776;SDS011;10047;42.490;26.012;2023-02-28T04:11:53;29.67;;;19.02;;
19776;SDS011;10047;42.490;26.012;2023-02-28T04:14:20;25.15;;;18.20;;
19776;SDS011;10047;42.490;26.012;2023-02-28T04:16:46;27.08;;;18.35;;
19776;SDS011;10047;42.490;26.012;2023-02-28T04:19:12;26.23;;;19.15;;
19776;SDS011;10047;42.490;26.012;2023-02-28T04:21:42;28.60;;;19.45;;
19776;SDS011;10047;42.490;26.012;2023-02-28T04:24:10;26.33;;;17.40;;
19776;SDS011;10047;42.490;26.012;2023-02-28T04:26:39;27.45;;;18.60;;
19776;SDS011;10047;42.490;26.012;2023-02-28T04:29:08;30.35;;;19.02;;
19776;SDS011;10047;42.490;26.012;2023-02-28T04:31:35;29.77;;;18.98;;
19776;SDS011;10047;42.490;26.012;2023-02-28T04:34:01;29.52;;;19.23;;
19776;SDS011;10047;42.490;26.012;2023-02-28T04:36:27;30.33;;;19.52;;
19776;SDS011;10047;42.490;26.012;2023-02-28T04:38:53;32.08;;;20.67;;
19776;SDS011;10047;42.490;26.012;2023-02-28T04:41:18;30.60;;;21.02;;
19776;SDS011;10047;42.490;26.012;2023-02-28T04:43:44;30.92;;;20.33;;
19776;SDS011;10047;42.490;26.012;2023-02-28T04:46:10;30.05;;;19.35;;
19776;SDS011;10047;42.490;26.012;2023-02-28T04:48:37;30.20;;;19.02;;
19776;SDS011;10047;42.490;26.012;2023-02-28T04:51:08;29.98;;;18.88;;
19776;SDS011;10047;42.490;26.012;2023-02-28T04:53:35;25.30;;;17.90;;
19776;SDS011;10047;42.490;26.012;2023-02-28T04:56:02;27.40;;;18.55;;
19776;SDS011;10047;42.490;26.012;2023-02-28T04:58:28;26.45;;;17.63;;
19776;SDS011;10047;42.490;26.012;2023-02-28T05:01:05;24.70;;;17.23;;
19776;SDS011;10047;42.490;26.012;2023-02-28T05:03:40;25.48;;;16.92;;
19776;SDS011;10047;42.490;26.012;2023-02-28T05:06:07;23.58;;;17.38;;
19776;SDS011;10047;42.490;26.012;2023-02-28T05:08:34;25.55;;;17.58;;
19776;SDS011;10047;42.490;26.012;2023-02-28T05:10:59;24.70;;;18.15;;
19776;SDS011;10047;42.490;26.012;2023-02-28T05:13:26;24.00;;;16.92;;
19776;SDS011;10047;42.490;26.012;2023-02-28T05:15:53;25.50;;;17.13;;
19776;SDS011;10047;42.490;26.012;2023-02-28T05:18:19;23.77;;;17.13;;
19776;SDS011;10047;42.490;26.012;2023-02-28T05:20:44;22.85;;;16.05;;
19776;SDS011;10047;42.490;26.012;2023-02-28T05:23:13;24.38;;;17.17;;
19776;SDS011;10047;42.490;26.012;2023-02-28T05:25:40;23.27;;;16.60;;
19776;SDS011;10047;42.490;26.012;2023-02-28T05:28:06;23.83;;;17.08;;
19776;SDS011;10047;42.490;26.012;2023-02-28T05:30:32;22.77;;;17.02;;
19776;SDS011;10047;42.490;26.012;2023-02-28T05:32:57;20.80;;;15.45;;
19776;SDS011;10047;42.490;26.012;2023-02-28T05:37:55;21.45;;;16.05;;
19776;SDS011;10047;42.490;26.012;2023-02-28T05:40:20;23.42;;;17.13;;
19776;SDS011;10047;42.490;26.012;2023-02-28T05:42:46;24.70;;;16.60;;
19776;SDS011;10047;42.490;26.012;2023-02-28T05:45:11;24.02;;;16.63;;
19776;SDS011;10047;42.490;26.012;2023-02-28T05:47:37;23.17;;;16.98;;
19776;SDS011;10047;42.490;26.012;2023-02-28T05:50:04;23.15;;;18.10;;
19776;SDS011;10047;42.490;26.012;2023-02-28T05:52:30;22.88;;;17.30;;
19776;SDS011;10047;42.490;26.012;2023-02-28T05:54:56;24.75;;;18.00;;
19776;SDS011;10047;42.490;26.012;2023-02-28T05:57:21;23.10;;;17.52;;
19776;SDS011;10047;42.490;26.012;2023-02-28T05:59:48;23.40;;;17.45;;
19776;SDS011;10047;42.490;26.012;2023-02-28T06:02:19;24.65;;;18.15;;
19776;SDS011;10047;42.490;26.012;2023-02-28T06:07:14;28.77;;;18.15;;
19776;SDS011;10047;42.490;26.012;2023-02-28T06:09:40;23.00;;;17.10;;
19776;SDS011;10047;42.490;26.012;2023-02-28T06:12:06;21.77;;;17.15;;
19776;SDS011;10047;42.490;26.012;2023-02-28T06:14:34;23.50;;;17.55;;
19776;SDS011;10047;42.490;26.012;2023-02-28T06:17:00;24.42;;;17.42;;
19776;SDS011;10047;42.490;26.012;2023-02-28T06:19:26;21.80;;;18.10;;
19776;SDS011;10047;42.490;26.012;2023-02-28T06:21:59;29.08;;;18.02;;
19776;SDS011;10047;42.490;26.012;2023-02-28T06:24:28;30.05;;;18.73;;
19776;SDS011;10047;42.490;26.012;2023-02-28T06:26:55;26.65;;;18.27;;
19776;SDS011;10047;42.490;26.012;2023-02-28T06:29:20;27.50;;;19.27;;
19776;SDS011;10047;42.490;26.012;2023-02-28T06:31:46;29.25;;;19.45;;
19776;SDS011;10047;42.490;26.012;2023-02-28T06:34:19;27.20;;;18.63;;
19776;SDS011;10047;42.490;26.012;2023-02-28T06:36:45;24.90;;;17.98;;
19776;SDS011;10047;42.490;26.012;2023-02-28T06:39:10;26.52;;;18.30;;
19776;SDS011;10047;42.490;26.012;2023-02-28T06:41:36;24.27;;;17.50;;
19776;SDS011;10047;42.490;26.012;2023-02-28T06:44:03;22.88;;;17.05;;
19776;SDS011;10047;42.490;26.012;2023-02-28T06:46:30;23.27;;;16.48;;
19776;SDS011;10047;42.490;26.012;2023-02-28T06:48:56;22.92;;;17.58;;
19776;SDS011;10047;42.490;26.012;2023-02-28T06:51:22;24.60;;;17.98;;
19776;SDS011;10047;42.490;26.012;2023-02-28T06:53:49;24.88;;;17.88;;
19776;SDS011;10047;42.490;26.012;2023-02-28T06:56:15;27.83;;;19.10;;
19776;SDS011;10047;42.490;26.012;2023-02-28T06:58:45;26.92;;;18.88;;
19776;SDS011;10047;42.490;26.012;2023-02-28T07:01:13;27.08;;;19.17;;
19776;SDS011;10047;42.490;26.012;2023-02-28T07:03:40;28.83;;;20.13;;
19776;SDS011;10047;42.490;26.012;2023-02-28T07:06:06;28.10;;;20.05;;
19776;SDS011;10047;42.490;26.012;2023-02-28T07:08:32;28.20;;;19.67;;
19776;SDS011;10047;42.490;26.012;2023-02-28T07:10:58;28.10;;;19.27;;
19776;SDS011;10047;42.490;26.012;2023-02-28T07:13:23;27.30;;;20.15;;
19776;SDS011;10047;42.490;26.012;2023-02-28T07:15:53;29.42;;;20.40;;
19776;SDS011;10047;42.490;26.012;2023-02-28T07:18:20;29.60;;;20.98;;
19776;SDS011;10047;42.490;26.012;2023-02-28T07:20:45;31.10;;;21.55;;
19776;SDS011;10047;42.490;26.012;2023-02-28T07:23:10;32.30;;;21.00;;
19776;SDS011;10047;42.490;26.012;2023-02-28T07:25:36;29.48;;;19.65;;
19776;SDS011;10047;42.490;26.012;2023-02-28T07:28:01;26.02;;;18.63;;
19776;SDS011;10047;42.490;26.012;2023-02-28T07:30:27;24.83;;;17.05;;
19776;SDS011;10047;42.490;26.012;2023-02-28T07:32:52;26.40;;;19.17;;
19776;SDS011;10047;42.490;26.012;2023-02-28T07:35:19;23.52;;;16.85;;
19776;SDS011;10047;42.490;26.012;2023-02-28T07:37:45;24.17;;;17.10;;
19776;SDS011;10047;42.490;26.012;2023-02-28T07:40:12;22.77;;;16.83;;
19776;SDS011;10047;42.490;26.012;2023-02-28T07:42:38;27.60;;;17.83;;
19776;SDS011;10047;42.490;26.012;2023-02-28T07:45:05;22.60;;;16.25;;
19776;SDS011;10047;42.490;26.012;2023-02-28T07:47:31;18.77;;;13.65;;
19776;SDS011;10047;42.490;26.012;2023-02-28T07:49:57;18.83;;;15.25;;
19776;SDS011;10047;42.490;26.012;2023-02-28T07:52:22;19.02;;;14.50;;
19776;SDS011;10047;42.490;26.012;2023-02-28T07:54:49;19.63;;;15.27;;
19776;SDS011;10047;42.490;26.012;2023-02-28T07:57:15;19.27;;;14.75;;
19776;SDS011;10047;42.490;26.012;2023-02-28T07:59:40;19.95;;;14.88;;
19776;SDS011;10047;42.490;26.012;2023-02-28T08:02:06;18.40;;;14.43;;
19776;SDS011;10047;42.490;26.012;2023-02-28T08:04:32;17.70;;;13.70;;
19776;SDS011;10047;42.490;26.012;2023-02-28T08:06:57;17.08;;;13.45;;
19776;SDS011;10047;42.490;26.012;2023-02-28T08:09:23;19.17;;;14.25;;
19776;SDS011;10047;42.490;26.012;2023-02-28T08:11:49;16.33;;;13.40;;
19776;SDS011;10047;42.490;26.012;2023-02-28T08:14:15;16.85;;;13.40;;
19776;SDS011;10047;42.490;26.012;2023-02-28T08:16:41;23.13;;;16.27;;
19776;SDS011;10047;42.490;26.012;2023-02-28T08:19:07;20.58;;;14.65;;
19776;SDS011;10047;42.490;26.012;2023-02-28T08:21:33;18.17;;;14.43;;
19776;SDS011;10047;42.490;26.012;2023-02-28T08:23:59;18.88;;;14.57;;
19776;SDS011;10047;42.490;26.012;2023-02-28T08:26:25;20.40;;;15.55;;
19776;SDS011;10047;42.490;26.012;2023-02-28T08:28:51;20.80;;;14.85;;
19776;SDS011;10047;42.490;26.012;2023-02-28T08:31:17;20.15;;;15.82;;
19776;SDS011;10047;42.490;26.012;2023-02-28T08:33:43;17.55;;;13.15;;
19776;SDS011;10047;42.490;26.012;2023-02-28T08:36:09;22.75;;;14.73;;
19776;SDS011;10047;42.490;26.012;2023-02-28T08:38:36;15.93;;;12.30;;
19776;SDS011;10047;42.490;26.012;2023-02-28T08:41:03;16.40;;;11.88;;
19776;SDS011;10047;42.490;26.012;2023-02-28T08:43:32;17.27;;;13.00;;
19776;SDS011;10047;42.490;26.012;2023-02-28T08:45:58;16.10;;;11.43;;
19776;SDS011;10047;42.490;26.012;2023-02-28T08:48:25;15.02;;;11.05;;
19776;SDS011;10047;42.490;26.012;2023-02-28T08:50:55;14.93;;;11.23;;
19776;SDS011;10047;42.490;26.012;2023-02-28T08:53:22;16.98;;;11.23;;
19776;SDS011;10047;42.490;26.012;2023-02-28T08:55:54;16.60;;;12.73;;
19776;SDS011;10047;42.490;26.012;2023-02-28T08:58:33;16.52;;;12.50;;
19776;SDS011;10047;42.490;26.012;2023-02-28T09:00:59;17.58;;;12.75;;
19776;SDS011;10047;42.490;26.012;2023-02-28T09:03:25;18.52;;;13.57;;
19776;SDS011;10047;42.490;26.012;2023-02-28T09:05:53;19.05;;;13.95;;
19776;SDS011;10047;42.490;26.012;2023-02-28T09:08:19;20.08;;;13.20;;
19776;SDS011;10047;42.490;26.012;2023-02-28T09:10:45;17.35;;;13.05;;
19776;SDS011;10047;42.490;26.012;2023-02-28T09:13:10;21.27;;;13.55;;
19776;SDS011;10047;42.490;26.012;2023-02-28T09:15:37;16.67;;;12.98;;
19776;SDS011;10047;42.490;26.012;2023-02-28T09:18:03;18.08;;;12.50;;
19776;SDS011;10047;42.490;26.012;2023-02-28T09:20:29;15.20;;;11.55;;
19776;SDS011;10047;42.490;26.012;2023-02-28T09:22:56;16.27;;;12.48;;
19776;SDS011;10047;42.490;26.012;2023-02-28T09:25:21;17.73;;;12.93;;
19776;SDS011;10047;42.490;26.012;2023-02-28T09:27:47;15.80;;;11.80;;
19776;SDS011;10047;42.490;26.012;2023-02-28T09:30:12;17.23;;;12.15;;
19776;SDS011;10047;42.490;26.012;2023-02-28T09:32:38;15.57;;;11.88;;
19776;SDS011;10047;42.490;26.012;2023-02-28T09:35:04;15.25;;;11.40;;
19776;SDS011;10047;42.490;26.012;2023-02-28T09:37:30;15.45;;;11.48;;
19776;SDS011;10047;42.490;26.012;2023-02-28T09:39:56;14.45;;;10.48;;
19776;SDS011;10047;42.490;26.012;2023-02-28T09:42:24;13.82;;;10.70;;
19776;SDS011;10047;42.490;26.012;2023-02-28T09:44:55;13.82;;;10.40;;
19776;SDS011;10047;42.490;26.012;2023-02-28T09:49:47;16.17;;;12.25;;
19776;SDS011;10047;42.490;26.012;2023-02-28T09:52:15;16.85;;;13.23;;
19776;SDS011;10047;42.490;26.012;2023-02-28T09:54:44;16.13;;;12.88;;
19776;SDS011;10047;42.490;26.012;2023-02-28T09:57:21;15.95;;;11.18;;
19776;SDS011;10047;42.490;26.012;2023-02-28T10:05:47;16.75;;;13.32;;
19776;SDS011;10047;42.490;26.012;2023-02-28T10:08:21;20.58;;;14.20;;
19776;SDS011;10047;42.490;26.012;2023-02-28T10:11:12;20.35;;;13.40;;
19776;SDS011;10047;42.490;26.012;2023-02-28T10:13:50;19.95;;;13.30;;
19776;SDS011;10047;42.490;26.012;2023-02-28T10:16:22;18.30;;;13.38;;
19776;SDS011;10047;42.490;26.012;2023-02-28T10:24:53;18.33;;;13.20;;
19776;SDS011;10047;42.490;26.012;2023-02-28T10:27:29;23.05;;;14.90;;
19776;SDS011;10047;42.490;26.012;2023-02-28T10:29:57;17.73;;;12.90;;
19776;SDS011;10047;42.490;26.012;2023-02-28T10:32:30;17.13;;;12.67;;
19776;SDS011;10047;42.490;26.012;2023-02-28T10:35:18;18.55;;;13.77;;
19776;SDS011;10047;42.490;26.012;2023-02-28T10:37:58;15.40;;;13.30;;
19776;SDS011;10047;42.490;26.012;2023-02-28T10:40:32;16.77;;;12.93;;
19776;SDS011;10047;42.490;26.012;2023-02-28T10:43:17;16.65;;;12.63;;
19776;SDS011;10047;42.490;26.012;2023-02-28T10:48:38;16.10;;;12.15;;
19776;SDS011;10047;42.490;26.012;2023-02-28T10:51:11;16.63;;;12.75;;
19776;SDS011;10047;42.490;26.012;2023-02-28T10:53:45;15.98;;;12.73;;
19776;SDS011;10047;42.490;26.012;2023-02-28T10:56:23;17.15;;;12.57;;
19776;SDS011;10047;42.490;26.012;2023-02-28T11:03:54;17.15;;;14.00;;
19776;SDS011;10047;42.490;26.012;2023-02-28T11:06:22;17.95;;;14.13;;
19776;SDS011;10047;42.490;26.012;2023-02-28T11:11:43;21.27;;;16.00;;
19776;SDS011;10047;42.490;26.012;2023-02-28T11:17:15;21.58;;;16.50;;
19776;SDS011;10047;42.490;26.012;2023-02-28T11:19:48;23.50;;;17.15;;
19776;SDS011;10047;42.490;26.012;2023-02-28T11:22:18;21.90;;;15.95;;
19776;SDS011;10047;42.490;26.012;2023-02-28T11:24:53;28.00;;;18.27;;
19776;SDS011;10047;42.490;26.012;2023-02-28T11:27:25;21.52;;;17.55;;
19776;SDS011;10047;42.490;26.012;2023-02-28T11:30:00;24.30;;;18.80;;
19776;SDS011;10047;42.490;26.012;2023-02-28T11:32:26;25.20;;;19.65;;
19776;SDS011;10047;42.490;26.012;2023-02-28T11:37:36;27.30;;;19.10;;
19776;SDS011;10047;42.490;26.012;2023-02-28T11:40:02;24.80;;;17.73;;
19776;SDS011;10047;42.490;26.012;2023-02-28T11:42:50;24.58;;;18.48;;
19776;SDS011;10047;42.490;26.012;2023-02-28T11:53:24;29.88;;;18.23;;
19776;SDS011;10047;42.490;26.012;2023-02-28T12:13:59;32.17;;;22.10;;
19776;SDS011;10047;42.490;26.012;2023-02-28T12:16:51;32.33;;;21.98;;
19776;SDS011;10047;42.490;26.012;2023-02-28T12:27:36;32.17;;;20.90;;
19776;SDS011;10047;42.490;26.012;2023-02-28T12:30:14;32.03;;;19.88;;
19776;SDS011;10047;42.490;26.012;2023-02-28T12:32:45;30.90;;;20.27;;
19776;SDS011;10047;42.490;26.012;2023-02-28T12:37:45;29.42;;;19.63;;
19776;SDS011;10047;42.490;26.012;2023-02-28T12:40:18;30.05;;;19.92;;
19776;SDS011;10047;42.490;26.012;2023-02-28T12:43:07;32.53;;;19.33;;
19776;SDS011;10047;42.490;26.012;2023-02-28T12:48:22;30.42;;;19.60;;
19776;SDS011;10047;42.490;26.012;2023-02-28T12:50:53;28.65;;;19.23;;
19776;SDS011;10047;42.490;26.012;2023-02-28T12:58:50;29.83;;;18.98;;
19776;SDS011;10047;42.490;26.012;2023-02-28T13:01:56;32.22;;;20.15;;
19776;SDS011;10047;42.490;26.012;2023-02-28T13:09:50;28.58;;;19.17;;
19776;SDS011;10047;42.490;26.012;2023-02-28T13:12:18;30.88;;;19.63;;
19776;SDS011;10047;42.490;26.012;2023-02-28T13:14:45;29.70;;;18.55;;
19776;SDS011;10047;42.490;26.012;2023-02-28T13:17:12;28.10;;;19.20;;
19776;SDS011;10047;42.490;26.012;2023-02-28T13:24:54;31.33;;;22.35;;
19776;SDS011;10047;42.490;26.012;2023-02-28T13:27:31;33.20;;;24.08;;
19776;SDS011;10047;42.490;26.012;2023-02-28T13:46:27;31.45;;;21.27;;
19776;SDS011;10047;42.490;26.012;2023-02-28T13:48:52;31.70;;;21.63;;
19776;SDS011;10047;42.490;26.012;2023-02-28T13:57:19;31.13;;;21.00;;
19776;SDS011;10047;42.490;26.012;2023-02-28T14:05:00;31.85;;;18.60;;
19776;SDS011;10047;42.490;26.012;2023-02-28T14:07:31;23.67;;;16.45;;
19776;SDS011;10047;42.490;26.012;2023-02-28T14:10:05;22.15;;;15.98;;
19776;SDS011;10047;42.490;26.012;2023-02-28T14:12:52;19.55;;;14.20;;
19776;SDS011;10047;42.490;26.012;2023-02-28T14:15:34;18.27;;;13.15;;
19776;SDS011;10047;42.490;26.012;2023-02-28T14:18:02;18.73;;;13.88;;
19776;SDS011;10047;42.490;26.012;2023-02-28T14:20:31;20.05;;;13.43;;
19776;SDS011;10047;42.490;26.012;2023-02-28T14:28:55;21.73;;;16.10;;
19776;SDS011;10047;42.490;26.012;2023-02-28T14:31:39;21.73;;;15.93;;
19776;SDS011;10047;42.490;26.012;2023-02-28T14:34:31;24.20;;;15.80;;
19776;SDS011;10047;42.490;26.012;2023-02-28T14:37:04;25.63;;;18.40;;
19776;SDS011;10047;42.490;26.012;2023-02-28T14:39:30;22.25;;;16.88;;
19776;SDS011;10047;42.490;26.012;2023-02-28T14:41:56;23.52;;;17.45;;
19776;SDS011;10047;42.490;26.012;2023-02-28T14:44:28;24.52;;;18.67;;
19776;SDS011;10047;42.490;26.012;2023-02-28T14:46:57;26.20;;;18.80;;
19776;SDS011;10047;42.490;26.012;2023-02-28T14:49:37;21.23;;;16.95;;
19776;SDS011;10047;42.490;26.012;2023-02-28T14:54:52;23.25;;;18.40;;
19776;SDS011;10047;42.490;26.012;2023-02-28T14:57:29;20.00;;;16.02;;
19776;SDS011;10047;42.490;26.012;2023-02-28T15:00:00;25.73;;;17.88;;
19776;SDS011;10047;42.490;26.012;2023-02-28T15:02:36;21.95;;;15.65;;
19776;SDS011;10047;42.490;26.012;2023-02-28T15:07:37;23.60;;;15.70;;
19776;SDS011;10047;42.490;26.012;2023-02-28T15:10:23;21.63;;;15.82;;
19776;SDS011;10047;42.490;26.012;2023-02-28T15:12:54;21.73;;;17.02;;
19776;SDS011;10047;42.490;26.012;2023-02-28T15:16:09;21.70;;;15.07;;
19776;SDS011;10047;42.490;26.012;2023-02-28T15:18:11;21.70;;;13.90;;
19776;SDS011;10047;42.490;26.012;2023-02-28T15:20:45;21.27;;;14.52;;
19776;SDS011;10047;42.490;26.012;2023-02-28T15:23:11;24.20;;;17.08;;
19776;SDS011;10047;42.490;26.012;2023-02-28T15:25:37;23.20;;;16.65;;
19776;SDS011;10047;42.490;26.012;2023-02-28T15:28:04;22.17;;;16.15;;
19776;SDS011;10047;42.490;26.012;2023-02-28T15:30:30;22.50;;;16.83;;
19776;SDS011;10047;42.490;26.012;2023-02-28T15:35:33;20.88;;;14.82;;
19776;SDS011;10047;42.490;26.012;2023-02-28T15:40:29;27.02;;;20.10;;
19776;SDS011;10047;42.490;26.012;2023-02-28T15:48:21;24.52;;;17.02;;
19776;SDS011;10047;42.490;26.012;2023-02-28T15:50:48;26.85;;;18.10;;
19776;SDS011;10047;42.490;26.012;2023-02-28T15:53:19;38.60;;;25.40;;
19776;SDS011;10047;42.490;26.012;2023-02-28T15:55:53;45.15;;;28.88;;
19776;SDS011;10047;42.490;26.012;2023-02-28T15:58:21;68.70;;;37.92;;
19776;SDS011;10047;42.490;26.012;2023-02-28T16:00:59;33.65;;;20.40;;
19776;SDS011;10047;42.490;26.012;2023-02-28T16:03:26;24.00;;;16.63;;
19776;SDS011;10047;42.490;26.012;2023-02-28T16:08:47;23.38;;;15.52;;
19776;SDS011;10047;42.490;26.012;2023-02-28T16:11:13;22.65;;;15.77;;
19776;SDS011;10047;42.490;26.012;2023-02-28T16:13:40;20.63;;;15.75;;
19776;SDS011;10047;42.490;26.012;2023-02-28T16:16:05;23.23;;;15.13;;
19776;SDS011;10047;42.490;26.012;2023-02-28T16:18:31;19.52;;;13.93;;
19776;SDS011;10047;42.490;26.012;2023-02-28T16:20:56;22.65;;;14.07;;
19776;SDS011;10047;42.490;26.012;2023-02-28T16:23:21;20.13;;;13.02;;
19776;SDS011;10047;42.490;26.012;2023-02-28T16:25:47;20.13;;;12.43;;
19776;SDS011;10047;42.490;26.012;2023-02-28T16:28:17;19.38;;;13.40;;
19776;SDS011;10047;42.490;26.012;2023-02-28T16:30:46;17.15;;;10.82;;
19776;SDS011;10047;42.490;26.012;2023-02-28T16:33:11;20.17;;;12.75;;
19776;SDS011;10047;42.490;26.012;2023-02-28T16:35:37;20.17;;;12.82;;
19776;SDS011;10047;42.490;26.012;2023-02-28T16:38:02;19.80;;;13.35;;
19776;SDS011;10047;42.490;26.012;2023-02-28T16:40:28;20.58;;;13.02;;
19776;SDS011;10047;42.490;26.012;2023-02-28T16:42:59;14.93;;;10.13;;
19776;SDS011;10047;42.490;26.012;2023-02-28T16:45:26;21.13;;;13.07;;
19776;SDS011;10047;42.490;26.012;2023-02-28T16:47:53;17.27;;;11.30;;
19776;SDS011;10047;42.490;26.012;2023-02-28T16:50:20;17.70;;;11.20;;
19776;SDS011;10047;42.490;26.012;2023-02-28T16:52:48;13.80;;;10.57;;
19776;SDS011;10047;42.490;26.012;2023-02-28T16:55:14;15.07;;;10.23;;
19776;SDS011;10047;42.490;26.012;2023-02-28T16:57:40;15.45;;;8.70;;
19776;SDS011;10047;42.490;26.012;2023-02-28T17:00:07;15.02;;;9.48;;
19776;SDS011;10047;42.490;26.012;2023-02-28T17:02:35;14.75;;;9.60;;
19776;SDS011;10047;42.490;26.012;2023-02-28T17:05:01;14.80;;;9.95;;
19776;SDS011;10047;42.490;26.012;2023-02-28T17:07:26;15.25;;;9.20;;
19776;SDS011;10047;42.490;26.012;2023-02-28T17:09:52;13.70;;;9.05;;
19776;SDS011;10047;42.490;26.012;2023-02-28T17:12:17;18.88;;;11.55;;
19776;SDS011;10047;42.490;26.012;2023-02-28T17:14:43;16.33;;;11.93;;
19776;SDS011;10047;42.490;26.012;2023-02-28T17:17:10;14.70;;;10.32;;
19776;SDS011;10047;42.490;26.012;2023-02-28T17:19:42;15.80;;;10.82;;
19776;SDS011;10047;42.490;26.012;2023-02-28T17:22:08;14.73;;;10.27;;
19776;SDS011;10047;42.490;26.012;2023-02-28T17:24:35;12.90;;;9.18;;